sensor_id;sensor_type;location;lat;lon;timestamp;pressure;altitude;pressure_sealevel;temperature;humidity
59513;BME280;45330;51.634;5.562;2024-01-27T00:01:03;103387.13;;;1.30;100.00
59513;BME280;45330;51.634;5.562;2024-01-27T00:03:29;103377.75;;;1.18;100.00
59513;BME280;45330;51.634;5.562;2024-01-27T00:05:54;103376.97;;;1.31;100.00
59513;BME280;45330;51.634;5.562;2024-01-27T00:08:19;103367.94;;;1.25;100.00
59513;BME280;45330;51.634;5.562;2024-01-27T00:10:46;103372.63;;;1.30;100.00
59513;BME280;45330;51.634;5.562;2024-01-27T00:13:11;103385.47;;;1.42;100.00
59513;BME280;45330;51.634;5.562;2024-01-27T00:15:38;103385.78;;;1.47;100.00
59513;BME280;45330;51.634;5.562;2024-01-27T00:18:03;103387.13;;;1.42;100.00
59513;BME280;45330;51.634;5.562;2024-01-27T00:20:29;103377.75;;;1.30;100.00
59513;BME280;45330;51.634;5.562;2024-01-27T00:22:54;103392.47;;;1.33;100.00
59513;BME280;45330;51.634;5.562;2024-01-27T00:25:19;103398.72;;;1.36;100.00
59513;BME280;45330;51.634;5.562;2024-01-27T00:27:45;103405.19;;;1.31;100.00
59513;BME280;45330;51.634;5.562;2024-01-27T00:30:10;103392.34;;;1.19;100.00
59513;BME280;45330;51.634;5.562;2024-01-27T00:32:37;103390.66;;;1.08;100.00
59513;BME280;45330;51.634;5.562;2024-01-27T00:35:02;103417.22;;;1.20;100.00
59513;BME280;45330;51.634;5.562;2024-01-27T00:37:28;103411.31;;;1.22;100.00
59513;BME280;45330;51.634;5.562;2024-01-27T00:39:54;103375.16;;;0.95;100.00
59513;BME280;45330;51.634;5.562;2024-01-27T00:42:19;103415.19;;;1.16;100.00
59513;BME280;45330;51.634;5.562;2024-01-27T00:44:50;103416.56;;;1.11;100.00
59513;BME280;45330;51.634;5.562;2024-01-27T00:47:15;103408.38;;;1.05;100.00
59513;BME280;45330;51.634;5.562;2024-01-27T00:49:41;103409.41;;;1.07;100.00
59513;BME280;45330;51.634;5.562;2024-01-27T00:52:06;103395.34;;;0.90;100.00
59513;BME280;45330;51.634;5.562;2024-01-27T00:54:31;103392.06;;;0.81;100.00
59513;BME280;45330;51.634;5.562;2024-01-27T00:56:57;103414.16;;;0.91;100.00
59513;BME280;45330;51.634;5.562;2024-01-27T00:59:22;103389.41;;;0.79;100.00
59513;BME280;45330;51.634;5.562;2024-01-27T01:01:47;103392.19;;;0.82;100.00
59513;BME280;45330;51.634;5.562;2024-01-27T01:04:13;103429.34;;;0.99;100.00
59513;BME280;45330;51.634;5.562;2024-01-27T01:06:39;103428.66;;;1.02;100.00
59513;BME280;45330;51.634;5.562;2024-01-27T01:09:05;103397.53;;;0.85;100.00
59513;BME280;45330;51.634;5.562;2024-01-27T01:11:31;103407.72;;;0.96;100.00
59513;BME280;45330;51.634;5.562;2024-01-27T01:13:56;103400.56;;;0.92;100.00
59513;BME280;45330;51.634;5.562;2024-01-27T01:16:21;103399.22;;;0.85;100.00
59513;BME280;45330;51.634;5.562;2024-01-27T01:18:47;103398.63;;;0.77;100.00
59513;BME280;45330;51.634;5.562;2024-01-27T01:21:12;103393.28;;;0.74;100.00
59513;BME280;45330;51.634;5.562;2024-01-27T01:23:38;103429.09;;;0.84;100.00
59513;BME280;45330;51.634;5.562;2024-01-27T01:26:03;103430.19;;;0.76;100.00
59513;BME280;45330;51.634;5.562;2024-01-27T01:28:29;103429.56;;;0.68;100.00
59513;BME280;45330;51.634;5.562;2024-01-27T01:30:54;103427.94;;;0.69;100.00
59513;BME280;45330;51.634;5.562;2024-01-27T01:33:20;103420.19;;;0.57;100.00
59513;BME280;45330;51.634;5.562;2024-01-27T01:35:45;103428.59;;;0.66;100.00
59513;BME280;45330;51.634;5.562;2024-01-27T01:38:11;103433.34;;;0.62;100.00
59513;BME280;45330;51.634;5.562;2024-01-27T01:40:36;103402.22;;;0.45;100.00
59513;BME280;45330;51.634;5.562;2024-01-27T01:43:01;103423.09;;;0.62;100.00
59513;BME280;45330;51.634;5.562;2024-01-27T01:45:29;103396.72;;;0.41;100.00
59513;BME280;45330;51.634;5.562;2024-01-27T01:47:54;103407.88;;;0.41;100.00
59513;BME280;45330;51.634;5.562;2024-01-27T01:50:20;103395.09;;;0.31;100.00
59513;BME280;45330;51.634;5.562;2024-01-27T01:52:48;103432.53;;;0.51;100.00
59513;BME280;45330;51.634;5.562;2024-01-27T01:55:14;103429.75;;;0.48;100.00
59513;BME280;45330;51.634;5.562;2024-01-27T01:57:42;103399.78;;;0.25;100.00
59513;BME280;45330;51.634;5.562;2024-01-27T02:00:09;103401.78;;;0.29;100.00
59513;BME280;45330;51.634;5.562;2024-01-27T02:02:34;103428.59;;;0.44;100.00
59513;BME280;45330;51.634;5.562;2024-01-27T02:04:59;103402.88;;;0.21;100.00
59513;BME280;45330;51.634;5.562;2024-01-27T02:07:25;103398.25;;;0.27;100.00
59513;BME280;45330;51.634;5.562;2024-01-27T02:09:50;103420.34;;;0.37;100.00
59513;BME280;45330;51.634;5.562;2024-01-27T02:12:16;103437.97;;;0.44;100.00
59513;BME280;45330;51.634;5.562;2024-01-27T02:14:41;103434.25;;;0.40;100.00
59513;BME280;45330;51.634;5.562;2024-01-27T02:17:06;103392.16;;;0.14;100.00
59513;BME280;45330;51.634;5.562;2024-01-27T02:19:32;103427.22;;;0.38;100.00
59513;BME280;45330;51.634;5.562;2024-01-27T02:21:57;103427.00;;;0.34;100.00
59513;BME280;45330;51.634;5.562;2024-01-27T02:24:23;103434.03;;;0.37;100.00
59513;BME280;45330;51.634;5.562;2024-01-27T02:26:48;103409.91;;;0.23;100.00
59513;BME280;45330;51.634;5.562;2024-01-27T02:29:13;103437.47;;;0.38;100.00
59513;BME280;45330;51.634;5.562;2024-01-27T02:31:39;103430.31;;;0.33;100.00
59513;BME280;45330;51.634;5.562;2024-01-27T02:34:04;103416.00;;;0.25;100.00
59513;BME280;45330;51.634;5.562;2024-01-27T02:36:29;103442.16;;;0.43;100.00
59513;BME280;45330;51.634;5.562;2024-01-27T02:38:55;103417.69;;;0.25;100.00
59513;BME280;45330;51.634;5.562;2024-01-27T02:41:20;103410.53;;;0.21;100.00
59513;BME280;45330;51.634;5.562;2024-01-27T02:43:46;103408.75;;;0.20;100.00
59513;BME280;45330;51.634;5.562;2024-01-27T02:46:12;103442.47;;;0.36;100.00
59513;BME280;45330;51.634;5.562;2024-01-27T02:48:44;103424.13;;;0.20;100.00
59513;BME280;45330;51.634;5.562;2024-01-27T02:51:10;103424.72;;;0.27;100.00
59513;BME280;45330;51.634;5.562;2024-01-27T02:53:35;103343.88;;;-0.25;100.00
59513;BME280;45330;51.634;5.562;2024-01-27T02:56:01;103437.66;;;0.29;100.00
59513;BME280;45330;51.634;5.562;2024-01-27T02:58:26;103402.16;;;0.11;100.00
59513;BME280;45330;51.634;5.562;2024-01-27T03:00:52;103409.69;;;0.10;100.00
59513;BME280;45330;51.634;5.562;2024-01-27T03:03:17;103444.97;;;0.24;100.00
59513;BME280;45330;51.634;5.562;2024-01-27T03:05:43;103407.31;;;0.01;100.00
59513;BME280;45330;51.634;5.562;2024-01-27T03:08:08;103415.00;;;0.01;100.00
59513;BME280;45330;51.634;5.562;2024-01-27T03:10:34;103437.88;;;0.10;100.00
59513;BME280;45330;51.634;5.562;2024-01-27T03:12:59;103441.56;;;0.13;100.00
59513;BME280;45330;51.634;5.562;2024-01-27T03:15:25;103444.00;;;0.12;100.00
59513;BME280;45330;51.634;5.562;2024-01-27T03:17:50;103422.97;;;-0.06;100.00
59513;BME280;45330;51.634;5.562;2024-01-27T03:20:15;103421.84;;;-0.10;100.00
59513;BME280;45330;51.634;5.562;2024-01-27T03:22:41;103442.41;;;0.02;100.00
59513;BME280;45330;51.634;5.562;2024-01-27T03:25:07;103421.75;;;-0.22;100.00
59513;BME280;45330;51.634;5.562;2024-01-27T03:27:33;103436.66;;;-0.06;100.00
59513;BME280;45330;51.634;5.562;2024-01-27T03:30:00;103407.16;;;-0.23;100.00
59513;BME280;45330;51.634;5.562;2024-01-27T03:32:30;103401.34;;;-0.32;100.00
59513;BME280;45330;51.634;5.562;2024-01-27T03:34:59;103404.25;;;-0.27;100.00
59513;BME280;45330;51.634;5.562;2024-01-27T03:37:24;103411.28;;;-0.25;100.00
59513;BME280;45330;51.634;5.562;2024-01-27T03:39:50;103432.97;;;-0.09;100.00
59513;BME280;45330;51.634;5.562;2024-01-27T03:42:15;103408.72;;;-0.25;100.00
59513;BME280;45330;51.634;5.562;2024-01-27T03:44:40;103414.31;;;-0.19;100.00
59513;BME280;45330;51.634;5.562;2024-01-27T03:47:06;103418.97;;;-0.25;100.00
59513;BME280;45330;51.634;5.562;2024-01-27T03:49:31;103441.69;;;-0.18;100.00
59513;BME280;45330;51.634;5.562;2024-01-27T03:51:56;103431.22;;;-0.21;100.00
59513;BME280;45330;51.634;5.562;2024-01-27T03:54:22;103413.88;;;-0.35;100.00
59513;BME280;45330;51.634;5.562;2024-01-27T03:56:47;103447.28;;;-0.11;100.00
59513;BME280;45330;51.634;5.562;2024-01-27T03:59:12;103410.66;;;-0.32;100.00
59513;BME280;45330;51.634;5.562;2024-01-27T04:01:38;103456.28;;;-0.16;100.00
59513;BME280;45330;51.634;5.562;2024-01-27T04:04:03;103459.38;;;-0.21;100.00
59513;BME280;45330;51.634;5.562;2024-01-27T04:06:29;103452.97;;;-0.26;100.00
59513;BME280;45330;51.634;5.562;2024-01-27T04:08:54;103450.19;;;-0.29;100.00
59513;BME280;45330;51.634;5.562;2024-01-27T04:11:23;103458.63;;;-0.20;100.00
59513;BME280;45330;51.634;5.562;2024-01-27T04:13:49;103443.66;;;-0.36;100.00
59513;BME280;45330;51.634;5.562;2024-01-27T04:16:17;103432.31;;;-0.39;100.00
59513;BME280;45330;51.634;5.562;2024-01-27T04:18:42;103465.63;;;-0.17;100.00
59513;BME280;45330;51.634;5.562;2024-01-27T04:21:08;103446.88;;;-0.28;100.00
59513;BME280;45330;51.634;5.562;2024-01-27T04:23:33;103429.63;;;-0.41;100.00
59513;BME280;45330;51.634;5.562;2024-01-27T04:25:59;103457.09;;;-0.28;100.00
59513;BME280;45330;51.634;5.562;2024-01-27T04:28:24;103453.25;;;-0.33;100.00
59513;BME280;45330;51.634;5.562;2024-01-27T04:30:50;103450.69;;;-0.33;100.00
59513;BME280;45330;51.634;5.562;2024-01-27T04:33:15;103456.97;;;-0.29;100.00
59513;BME280;45330;51.634;5.562;2024-01-27T04:35:40;103426.72;;;-0.56;100.00
59513;BME280;45330;51.634;5.562;2024-01-27T04:38:08;103455.59;;;-0.36;100.00
59513;BME280;45330;51.634;5.562;2024-01-27T04:40:33;103463.25;;;-0.36;100.00
59513;BME280;45330;51.634;5.562;2024-01-27T04:43:00;103451.13;;;-0.49;100.00
59513;BME280;45330;51.634;5.562;2024-01-27T04:45:26;103472.97;;;-0.42;100.00
59513;BME280;45330;51.634;5.562;2024-01-27T04:47:52;103471.56;;;-0.39;100.00
59513;BME280;45330;51.634;5.562;2024-01-27T04:50:19;103471.69;;;-0.37;100.00
59513;BME280;45330;51.634;5.562;2024-01-27T04:52:44;103468.13;;;-0.39;100.00
59513;BME280;45330;51.634;5.562;2024-01-27T04:55:10;103430.78;;;-0.58;100.00
59513;BME280;45330;51.634;5.562;2024-01-27T04:57:35;103460.84;;;-0.45;100.00
59513;BME280;45330;51.634;5.562;2024-01-27T05:00:00;103427.88;;;-0.62;100.00
59513;BME280;45330;51.634;5.562;2024-01-27T05:02:26;103461.72;;;-0.44;100.00
59513;BME280;45330;51.634;5.562;2024-01-27T05:04:51;103461.38;;;-0.49;100.00
59513;BME280;45330;51.634;5.562;2024-01-27T05:07:17;103424.94;;;-0.67;100.00
59513;BME280;45330;51.634;5.562;2024-01-27T05:09:43;103466.38;;;-0.50;100.00
59513;BME280;45330;51.634;5.562;2024-01-27T05:12:08;103462.41;;;-0.57;100.00
59513;BME280;45330;51.634;5.562;2024-01-27T05:14:34;103464.84;;;-0.59;100.00
59513;BME280;45330;51.634;5.562;2024-01-27T05:16:59;103441.31;;;-0.75;100.00
59513;BME280;45330;51.634;5.562;2024-01-27T05:19:25;103464.84;;;-0.59;100.00
59513;BME280;45330;51.634;5.562;2024-01-27T05:21:50;103460.63;;;-0.68;100.00
59513;BME280;45330;51.634;5.562;2024-01-27T05:24:15;103459.47;;;-0.72;100.00
59513;BME280;45330;51.634;5.562;2024-01-27T05:26:41;103473.28;;;-0.70;100.00
59513;BME280;45330;51.634;5.562;2024-01-27T05:29:06;103467.38;;;-0.69;100.00
59513;BME280;45330;51.634;5.562;2024-01-27T05:31:32;103439.19;;;-0.91;100.00
59513;BME280;45330;51.634;5.562;2024-01-27T05:33:57;103465.34;;;-0.73;100.00
59513;BME280;45330;51.634;5.562;2024-01-27T05:36:22;103453.88;;;-0.78;100.00
59513;BME280;45330;51.634;5.562;2024-01-27T05:38:48;103446.69;;;-0.82;100.00
59513;BME280;45330;51.634;5.562;2024-01-27T05:41:14;103456.06;;;-0.83;100.00
59513;BME280;45330;51.634;5.562;2024-01-27T05:43:39;103421.94;;;-1.04;100.00
59513;BME280;45330;51.634;5.562;2024-01-27T05:46:04;103448.91;;;-0.87;100.00
59513;BME280;45330;51.634;5.562;2024-01-27T05:48:30;103428.31;;;-0.99;100.00
59513;BME280;45330;51.634;5.562;2024-01-27T05:50:56;103433.53;;;-0.97;100.00
59513;BME280;45330;51.634;5.562;2024-01-27T05:53:22;103451.84;;;-0.93;100.00
59513;BME280;45330;51.634;5.562;2024-01-27T05:55:47;103404.66;;;-1.17;100.00
59513;BME280;45330;51.634;5.562;2024-01-27T05:58:13;103448.25;;;-0.95;100.00
59513;BME280;45330;51.634;5.562;2024-01-27T06:00:38;103420.91;;;-1.06;100.00
59513;BME280;45330;51.634;5.562;2024-01-27T06:03:04;103448.78;;;-0.89;100.00
59513;BME280;45330;51.634;5.562;2024-01-27T06:05:29;103452.09;;;-0.90;100.00
59513;BME280;45330;51.634;5.562;2024-01-27T06:07:55;103451.56;;;-0.96;100.00
59513;BME280;45330;51.634;5.562;2024-01-27T06:10:20;103453.09;;;-0.98;100.00
59513;BME280;45330;51.634;5.562;2024-01-27T06:12:45;103444.16;;;-1.03;100.00
59513;BME280;45330;51.634;5.562;2024-01-27T06:15:11;103415.81;;;-1.16;100.00
59513;BME280;45330;51.634;5.562;2024-01-27T06:17:36;103444.16;;;-1.03;100.00
59513;BME280;45330;51.634;5.562;2024-01-27T06:20:02;103419.25;;;-1.26;100.00
59513;BME280;45330;51.634;5.562;2024-01-27T06:22:28;103458.44;;;-1.15;100.00
59513;BME280;45330;51.634;5.562;2024-01-27T06:24:53;103426.25;;;-1.34;100.00
59513;BME280;45330;51.634;5.562;2024-01-27T06:27:19;103451.31;;;-1.19;100.00
59513;BME280;45330;51.634;5.562;2024-01-27T06:29:44;103464.84;;;-1.21;100.00
59513;BME280;45330;51.634;5.562;2024-01-27T06:32:09;103465.34;;;-1.25;100.00
59513;BME280;45330;51.634;5.562;2024-01-27T06:34:35;103429.94;;;-1.51;100.00
59513;BME280;45330;51.634;5.562;2024-01-27T06:37:00;103447.06;;;-1.40;100.00
59513;BME280;45330;51.634;5.562;2024-01-27T06:39:26;103458.94;;;-1.30;100.00
59513;BME280;45330;51.634;5.562;2024-01-27T06:41:52;103458.06;;;-1.41;100.00
59513;BME280;45330;51.634;5.562;2024-01-27T06:44:17;103433.66;;;-1.47;100.00
59513;BME280;45330;51.634;5.562;2024-01-27T06:46:42;103445.91;;;-1.43;100.00
59513;BME280;45330;51.634;5.562;2024-01-27T06:49:10;103463.94;;;-1.31;100.00
59513;BME280;45330;51.634;5.562;2024-01-27T06:51:35;103421.38;;;-1.51;100.00
59513;BME280;45330;51.634;5.562;2024-01-27T06:54:00;103428.78;;;-1.44;100.00
59513;BME280;45330;51.634;5.562;2024-01-27T06:56:26;103443.13;;;-1.36;100.00
59513;BME280;45330;51.634;5.562;2024-01-27T06:58:51;103438.63;;;-1.39;100.00
59513;BME280;45330;51.634;5.562;2024-01-27T07:01:16;103440.19;;;-1.41;100.00
59513;BME280;45330;51.634;5.562;2024-01-27T07:03:42;103452.69;;;-1.33;100.00
59513;BME280;45330;51.634;5.562;2024-01-27T07:06:09;103457.44;;;-1.28;100.00
59513;BME280;45330;51.634;5.562;2024-01-27T07:08:35;103494.25;;;-1.05;100.00
59513;BME280;45330;51.634;5.562;2024-01-27T07:11:00;103491.19;;;-1.01;100.00
59513;BME280;45330;51.634;5.562;2024-01-27T07:13:25;103480.16;;;-1.00;100.00
59513;BME280;45330;51.634;5.562;2024-01-27T07:15:54;103489.63;;;-0.99;100.00
59513;BME280;45330;51.634;5.562;2024-01-27T07:18:19;103501.16;;;-0.94;100.00
59513;BME280;45330;51.634;5.562;2024-01-27T07:20:44;103511.00;;;-0.88;100.00
59513;BME280;45330;51.634;5.562;2024-01-27T07:23:10;103481.09;;;-0.99;100.00
59513;BME280;45330;51.634;5.562;2024-01-27T07:25:35;103460.38;;;-1.13;100.00
59513;BME280;45330;51.634;5.562;2024-01-27T07:28:01;103497.84;;;-0.93;100.00
59513;BME280;45330;51.634;5.562;2024-01-27T07:30:26;103505.63;;;-0.81;100.00
59513;BME280;45330;51.634;5.562;2024-01-27T07:32:52;103510.88;;;-0.79;100.00
59513;BME280;45330;51.634;5.562;2024-01-27T07:35:17;103510.88;;;-0.79;100.00
59513;BME280;45330;51.634;5.562;2024-01-27T07:37:43;103516.22;;;-0.76;100.00
59513;BME280;45330;51.634;5.562;2024-01-27T07:40:09;103508.56;;;-0.76;100.00
59513;BME280;45330;51.634;5.562;2024-01-27T07:42:34;103486.56;;;-0.95;100.00
59513;BME280;45330;51.634;5.562;2024-01-27T07:45:00;103455.66;;;-1.08;100.00
59513;BME280;45330;51.634;5.562;2024-01-27T07:47:25;103495.03;;;-0.85;100.00
59513;BME280;45330;51.634;5.562;2024-01-27T07:49:50;103522.00;;;-0.68;100.00
59513;BME280;45330;51.634;5.562;2024-01-27T07:52:16;103485.94;;;-0.82;100.00
59513;BME280;45330;51.634;5.562;2024-01-27T07:54:41;103521.09;;;-0.59;100.00
59513;BME280;45330;51.634;5.562;2024-01-27T07:57:06;103510.63;;;-0.62;100.00
59513;BME280;45330;51.634;5.562;2024-01-27T07:59:32;103520.31;;;-0.58;100.00
59513;BME280;45330;51.634;5.562;2024-01-27T08:01:59;103522.63;;;-0.61;100.00
59513;BME280;45330;51.634;5.562;2024-01-27T08:04:24;103520.97;;;-0.50;100.00
59513;BME280;45330;51.634;5.562;2024-01-27T08:06:50;103428.44;;;-0.97;100.00
59513;BME280;45330;51.634;5.562;2024-01-27T08:09:16;103485.06;;;-0.62;100.00
59513;BME280;45330;51.634;5.562;2024-01-27T08:11:42;103489.91;;;-0.55;100.00
59513;BME280;45330;51.634;5.562;2024-01-27T08:14:09;103514.19;;;-0.39;100.00
59513;BME280;45330;51.634;5.562;2024-01-27T08:16:34;103511.75;;;-0.38;100.00
59513;BME280;45330;51.634;5.562;2024-01-27T08:19:00;103511.59;;;-0.29;100.00
59513;BME280;45330;51.634;5.562;2024-01-27T08:21:25;103487.06;;;-0.47;100.00
59513;BME280;45330;51.634;5.562;2024-01-27T08:23:51;103521.19;;;-0.26;100.00
59513;BME280;45330;51.634;5.562;2024-01-27T08:26:16;103523.09;;;-0.24;100.00
59513;BME280;45330;51.634;5.562;2024-01-27T08:28:43;103485.00;;;-0.41;100.00
59513;BME280;45330;51.634;5.562;2024-01-27T08:31:09;103466.84;;;-0.44;100.00
59513;BME280;45330;51.634;5.562;2024-01-27T08:33:35;103477.56;;;-0.38;100.00
59513;BME280;45330;51.634;5.562;2024-01-27T08:36:00;103505.91;;;-0.14;100.00
59513;BME280;45330;51.634;5.562;2024-01-27T08:38:26;103456.97;;;-0.40;100.00
59513;BME280;45330;51.634;5.562;2024-01-27T08:40:51;103497.19;;;-0.06;100.00
59513;BME280;45330;51.634;5.562;2024-01-27T08:43:17;103466.28;;;-0.20;100.00
59513;BME280;45330;51.634;5.562;2024-01-27T08:45:42;103475.44;;;-0.11;100.00
59513;BME280;45330;51.634;5.562;2024-01-27T08:48:07;103482.47;;;0.02;100.00
59513;BME280;45330;51.634;5.562;2024-01-27T08:50:33;103507.63;;;0.17;100.00
59513;BME280;45330;51.634;5.562;2024-01-27T08:52:59;103493.81;;;0.05;100.00
59513;BME280;45330;51.634;5.562;2024-01-27T08:55:24;103506.47;;;0.14;100.00
59513;BME280;45330;51.634;5.562;2024-01-27T08:57:50;103451.19;;;-0.16;100.00
59513;BME280;45330;51.634;5.562;2024-01-27T09:00:16;103495.63;;;0.06;100.00
59513;BME280;45330;51.634;5.562;2024-01-27T09:02:42;103500.97;;;0.09;100.00
59513;BME280;45330;51.634;5.562;2024-01-27T09:05:08;103492.19;;;0.06;100.00
59513;BME280;45330;51.634;5.562;2024-01-27T09:07:33;103524.38;;;0.24;100.00
59513;BME280;45330;51.634;5.562;2024-01-27T09:09:59;103530.09;;;0.32;100.00
59513;BME280;45330;51.634;5.562;2024-01-27T09:12:25;103491.97;;;0.25;100.00
59513;BME280;45330;51.634;5.562;2024-01-27T09:14:50;103501.78;;;0.30;100.00
59513;BME280;45330;51.634;5.562;2024-01-27T09:17:16;103536.25;;;0.56;100.00
59513;BME280;45330;51.634;5.562;2024-01-27T09:19:42;103504.16;;;0.49;100.00
59513;BME280;45330;51.634;5.562;2024-01-27T09:22:07;103542.03;;;0.76;100.00
59513;BME280;45330;51.634;5.562;2024-01-27T09:24:33;103524.88;;;0.75;100.00
59513;BME280;45330;51.634;5.562;2024-01-27T09:26:58;103539.53;;;0.88;100.00
59513;BME280;45330;51.634;5.562;2024-01-27T09:29:24;103546.81;;;0.93;100.00
59513;BME280;45330;51.634;5.562;2024-01-27T09:31:49;103524.41;;;0.91;100.00
59513;BME280;45330;51.634;5.562;2024-01-27T09:34:14;103523.50;;;0.90;100.00
59513;BME280;45330;51.634;5.562;2024-01-27T09:36:40;103546.97;;;1.07;100.00
59513;BME280;45330;51.634;5.562;2024-01-27T09:39:05;103551.66;;;1.12;100.00
59513;BME280;45330;51.634;5.562;2024-01-27T09:41:31;103556.38;;;1.18;100.00
59513;BME280;45330;51.634;5.562;2024-01-27T09:44:00;103529.38;;;1.11;100.00
59513;BME280;45330;51.634;5.562;2024-01-27T09:46:27;103539.34;;;1.18;100.00
59513;BME280;45330;51.634;5.562;2024-01-27T09:48:52;103537.00;;;1.22;100.00
59513;BME280;45330;51.634;5.562;2024-01-27T09:51:19;103566.66;;;1.52;100.00
59513;BME280;45330;51.634;5.562;2024-01-27T09:53:44;103579.91;;;1.58;100.00
59513;BME280;45330;51.634;5.562;2024-01-27T09:56:12;103579.16;;;1.59;100.00
59513;BME280;45330;51.634;5.562;2024-01-27T09:58:43;103554.59;;;1.51;100.00
59513;BME280;45330;51.634;5.562;2024-01-27T10:01:09;103561.63;;;1.53;100.00
59513;BME280;45330;51.634;5.562;2024-01-27T10:03:35;103588.78;;;1.74;100.00
59513;BME280;45330;51.634;5.562;2024-01-27T10:06:04;103576.38;;;1.68;100.00
59513;BME280;45330;51.634;5.562;2024-01-27T10:08:33;103590.25;;;1.82;100.00
59513;BME280;45330;51.634;5.562;2024-01-27T10:10:58;103601.88;;;1.88;100.00
59513;BME280;45330;51.634;5.562;2024-01-27T10:13:24;103566.53;;;1.74;100.00
59513;BME280;45330;51.634;5.562;2024-01-27T10:16:06;103583.56;;;1.96;100.00
59513;BME280;45330;51.634;5.562;2024-01-27T10:18:32;103586.22;;;2.09;100.00
59513;BME280;45330;51.634;5.562;2024-01-27T10:20:58;103544.22;;;1.97;100.00
59513;BME280;45330;51.634;5.562;2024-01-27T10:23:24;103573.50;;;2.22;100.00
59513;BME280;45330;51.634;5.562;2024-01-27T10:25:50;103556.75;;;2.16;100.00
59513;BME280;45330;51.634;5.562;2024-01-27T10:28:16;103578.31;;;2.30;100.00
59513;BME280;45330;51.634;5.562;2024-01-27T10:30:42;103574.38;;;2.35;100.00
59513;BME280;45330;51.634;5.562;2024-01-27T10:33:09;103588.22;;;2.49;100.00
59513;BME280;45330;51.634;5.562;2024-01-27T10:35:43;103581.94;;;2.57;100.00
59513;BME280;45330;51.634;5.562;2024-01-27T10:38:09;103585.06;;;2.65;100.00
59513;BME280;45330;51.634;5.562;2024-01-27T10:40:36;103593.53;;;2.75;100.00
59513;BME280;45330;51.634;5.562;2024-01-27T10:43:04;103595.75;;;2.83;100.00
59513;BME280;45330;51.634;5.562;2024-01-27T10:45:35;103565.94;;;2.73;100.00
59513;BME280;45330;51.634;5.562;2024-01-27T10:48:02;103580.66;;;2.87;100.00
59513;BME280;45330;51.634;5.562;2024-01-27T10:50:28;103587.69;;;2.90;100.00
59513;BME280;45330;51.634;5.562;2024-01-27T10:52:57;103557.06;;;2.81;100.00
59513;BME280;45330;51.634;5.562;2024-01-27T10:55:23;103580.69;;;3.01;100.00
59513;BME280;45330;51.634;5.562;2024-01-27T10:57:50;103572.19;;;3.02;100.00
59513;BME280;45330;51.634;5.562;2024-01-27T11:00:17;103548.66;;;2.96;100.00
59513;BME280;45330;51.634;5.562;2024-01-27T11:02:44;103588.13;;;3.21;100.00
59513;BME280;45330;51.634;5.562;2024-01-27T11:05:10;103567.75;;;3.24;100.00
59513;BME280;45330;51.634;5.562;2024-01-27T11:07:38;103539.03;;;3.18;100.00
59513;BME280;45330;51.634;5.562;2024-01-27T11:10:04;103550.84;;;3.28;100.00
59513;BME280;45330;51.634;5.562;2024-01-27T11:12:30;103557.13;;;3.45;100.00
59513;BME280;45330;51.634;5.562;2024-01-27T11:14:56;103547.81;;;3.47;100.00
59513;BME280;45330;51.634;5.562;2024-01-27T11:17:24;103563.69;;;3.67;100.00
59513;BME280;45330;51.634;5.562;2024-01-27T11:19:49;103557.75;;;3.68;100.00
59513;BME280;45330;51.634;5.562;2024-01-27T11:22:26;103544.59;;;3.63;100.00
59513;BME280;45330;51.634;5.562;2024-01-27T11:24:53;103557.38;;;3.75;100.00
59513;BME280;45330;51.634;5.562;2024-01-27T11:27:26;103550.53;;;3.89;100.00
59513;BME280;45330;51.634;5.562;2024-01-27T11:29:54;103555.41;;;3.98;100.00
59513;BME280;45330;51.634;5.562;2024-01-27T11:32:20;103557.47;;;4.03;100.00
59513;BME280;45330;51.634;5.562;2024-01-27T11:34:47;103531.63;;;4.02;100.00
59513;BME280;45330;51.634;5.562;2024-01-27T11:37:15;103537.47;;;4.12;100.00
59513;BME280;45330;51.634;5.562;2024-01-27T11:39:40;103530.44;;;4.23;100.00
59513;BME280;45330;51.634;5.562;2024-01-27T11:42:08;103504.53;;;4.22;100.00
59513;BME280;45330;51.634;5.562;2024-01-27T11:44:37;103531.78;;;4.45;100.00
59513;BME280;45330;51.634;5.562;2024-01-27T11:47:04;103550.09;;;4.63;100.00
59513;BME280;45330;51.634;5.562;2024-01-27T11:49:30;103545.28;;;4.69;100.00
59513;BME280;45330;51.634;5.562;2024-01-27T11:51:55;103525.78;;;4.59;100.00
59513;BME280;45330;51.634;5.562;2024-01-27T11:54:20;103538.81;;;4.76;100.00
59513;BME280;45330;51.634;5.562;2024-01-27T11:56:46;103505.72;;;4.69;100.00
59513;BME280;45330;51.634;5.562;2024-01-27T11:59:11;103508.56;;;4.73;100.00
59513;BME280;45330;51.634;5.562;2024-01-27T12:01:37;103524.47;;;4.94;100.00
59513;BME280;45330;51.634;5.562;2024-01-27T12:04:07;103492.84;;;4.84;100.00
59513;BME280;45330;51.634;5.562;2024-01-27T12:06:34;103497.69;;;4.92;100.00
59513;BME280;45330;51.634;5.562;2024-01-27T12:08:59;103525.38;;;5.10;100.00
59513;BME280;45330;51.634;5.562;2024-01-27T12:11:25;103507.16;;;5.07;100.00
59513;BME280;45330;51.634;5.562;2024-01-27T12:13:51;103506.97;;;5.04;100.00
59513;BME280;45330;51.634;5.562;2024-01-27T12:16:17;103510.50;;;5.06;100.00
59513;BME280;45330;51.634;5.562;2024-01-27T12:18:44;103532.00;;;5.20;100.00
59513;BME280;45330;51.634;5.562;2024-01-27T12:21:10;103539.81;;;5.21;100.00
59513;BME280;45330;51.634;5.562;2024-01-27T12:23:35;103508.31;;;5.12;100.00
59513;BME280;45330;51.634;5.562;2024-01-27T12:26:01;103535.22;;;5.30;100.00
59513;BME280;45330;51.634;5.562;2024-01-27T12:28:26;103523.28;;;5.32;100.00
59513;BME280;45330;51.634;5.562;2024-01-27T12:30:52;103525.25;;;5.37;100.00
59513;BME280;45330;51.634;5.562;2024-01-27T12:33:19;103517.41;;;5.35;100.00
59513;BME280;45330;51.634;5.562;2024-01-27T12:35:48;103525.59;;;5.43;100.00
59513;BME280;45330;51.634;5.562;2024-01-27T12:38:14;103527.91;;;5.53;100.00